Stations météo

Publicité
Nimes/Courbessac, France (7645): Température de l'air & dewpoint: 03.08.2020 07:00:00 - 09.08.2020 07:00:00 (CEST)Nimes/Courbessac, France (7645): Température de l'air 5cm: 03.08.2020 07:00:00 - 09.08.2020 07:00:00 (CEST)Nimes/Courbessac, France (7645): Température de l'air -20cm: 03.08.2020 07:00:00 - 09.08.2020 07:00:00 (CEST)Nimes/Courbessac, France (7645): Vitesse du vent & gusts: 03.08.2020 07:00:00 - 09.08.2020 07:00:00 (CEST)Nimes/Courbessac, France (7645): Direction du vent: 03.08.2020 07:00:00 - 09.08.2020 07:00:00 (CEST)Nimes/Courbessac, France (7645): reduced air pressure: 03.08.2020 07:00:00 - 09.08.2020 07:00:00 (CEST)Nimes/Courbessac, France (7645): Ensoleillement: 03.08.2020 07:00:00 - 09.08.2020 07:00:00 (CEST)Nimes/Courbessac, France (7645): Quantités de précipitations: 03.08.2020 07:00:00 - 09.08.2020 07:00:00 (CEST)
Date & Time tt [°C] td [°C] tt 5cm [°C] tt -20cm [°C] ff [km/h] ff [knt] fx [km/h] fx [knt] dd ppp [hPa] sd [min] rr [mm]
09.08.2020 07:00:00 19,8 18,8 18,6 30,6 0 0 3 1 N 1017,3 0 0,0
09.08.2020 06:00:00 20,2 18,9 19,2 31,1 0 0 11 6 N 1017,0 0 0,0
09.08.2020 05:00:00 20,7 19,5 19,9 31,4 3 2 11 6 NNE 1017,1 0 0,0
09.08.2020 04:00:00 21,0 19,6 20,4 31,8 6 3 10 5 NNW 1017,3 0 0,0
09.08.2020 03:00:00 21,2 19,8 20,7 32,2 6 3 11 6 NNE 1017,1 0 0,0
09.08.2020 02:00:00 21,8 19,9 21,2 32,6 5 3 15 8 E 1017,5 0 0,0
09.08.2020 01:00:00 22,5 20,4 22,6 33,0 11 6 19 10 SE 1017,7 0 0,0
09.08.2020 00:00:00 22,5 20,6 22,6 33,5 13 7 20 11 SSE 1017,5 0 0,0
08.08.2020 23:00:00 23,2 21,1 22,7 34,0 8 4 19 10 S 1017,0 0 0,0
08.08.2020 22:00:00 24,2 20,9 24,0 34,4 10 6 19 10 SSW 1016,5 0 0,0
08.08.2020 21:00:00 25,2 20,7 25,1 34,7 10 5 22 12 SSW 1015,9 0 0,0
08.08.2020 20:00:00 27,5 20,1 27,7 35,0 14 7 25 13 S 1015,7 0 0,0
08.08.2020 19:00:00 32,0 17,9 34,9 35,0 16 9 26 14 S 1015,3 57 0,0
08.08.2020 18:00:00 34,0 18,1 39,5 34,6 16 9 28 15 S 1015,1 60 0,0
08.08.2020 17:00:00 35,4 18,9 41,4 33,9 16 8 27 14 S 1015,3 60 0,0
08.08.2020 16:00:00 36,1 16,8 42,5 33,1 9 5 21 11 S 1015,7 60 0,0
08.08.2020 15:00:00 35,8 14,5 41,7 32,1 8 4 20 11 S 1016,4 60 0,0
08.08.2020 14:00:00 34,2 14,1 40,7 31,2 10 5 21 11 S 1017,0 60 0,0
08.08.2020 13:00:00 32,4 15,0 37,5 30,4 7 4 15 8 SSW 1017,9 60 0,0
08.08.2020 12:00:00 30,8 17,5 34,4 29,8 5 3 15 8 S 1018,4 60 0,0
08.08.2020 11:00:00 28,4 19,3 32,0 29,4 5 3 12 6 E 1019,0 60 0,0
08.08.2020 10:00:00 25,8 19,4 28,7 29,4 5 3 12 7 SSE 1019,2 58 0,0
08.08.2020 09:00:00 24,7 19,1 24,1 29,5 3 2 6 3 SSE 1019,4 60 0,0
08.08.2020 08:00:00 22,7 19,3 19,1 29,9 6 3 9 5 ENE 1019,3 60 0,0
08.08.2020 07:00:00 20,3 18,6 19,2 30,3 3 2 8 4 NNW 1019,1 0 0,0
08.08.2020 06:00:00 20,8 18,7 19,5 30,7 5 3 9 5 NNW 1019,1 0 0,0
08.08.2020 05:00:00 21,9 19,1 20,6 31,0 0 0 9 5 N 1019,0 0 0,0
08.08.2020 04:00:00 22,2 19,7 21,7 31,3 2 1 9 5 NE 1019,4 0 0,0
08.08.2020 03:00:00 22,8 20,1 22,7 31,5 4 2 11 6 E 1019,5 0 0,0
08.08.2020 02:00:00 23,1 20,8 23,1 31,9 6 3 13 7 SE 1019,8 0 0,0
08.08.2020 01:00:00 23,3 21,2 23,2 32,2 7 4 14 7 S 1019,6 0 0,0
08.08.2020 00:00:00 22,9 21,7 22,7 32,6 7 4 13 7 S 1019,4 0 0,0
07.08.2020 23:00:00 22,9 21,2 23,0 33,0 9 5 18 10 SSW 1018,8 0 0,0
07.08.2020 22:00:00 24,0 20,9 23,6 33,4 10 5 22 12 SSW 1018,2 0 0,0
07.08.2020 21:00:00 25,9 19,3 25,6 33,6 11 6 23 12 S 1017,1 34 0,0
07.08.2020 20:00:00 28,6 16,8 29,0 33,9 14 7 28 15 SSW 1016,8 60 0,0
07.08.2020 19:00:00 30,7 13,5 34,4 33,9 16 8 29 16 S 1016,7 60 0,0
07.08.2020 18:00:00 32,2 9,7 37,3 33,6 19 10 31 17 S 1016,7 60 0,0
07.08.2020 17:00:00 33,3 9,4 39,1 32,9 17 9 31 17 S 1016,9 60 0,0
07.08.2020 16:00:00 34,8 12,5 41,0 32,0 17 9 43 23 S 1016,9 60 0,0
07.08.2020 15:00:00 34,4 10,9 41,1 31,0 16 8 26 14 S 1017,2 60 0,0
07.08.2020 14:00:00 34,5 10,4 40,6 29,9 9 5 25 14 S 1017,4 60 0,0
07.08.2020 13:00:00 32,4 10,4 38,6 29,0 5 3 18 10 SW 1017,9 60 0,0
07.08.2020 12:00:00 32,2 10,8 36,7 28,4 5 3 14 8 S 1018,3 60 0,0
07.08.2020 11:00:00 29,8 12,2 32,7 28,0 5 3 12 7 SE 1018,4 60 0,0
07.08.2020 10:00:00 27,4 12,6 28,3 27,9 5 3 12 6 E 1018,5 60 0,0
07.08.2020 09:00:00 24,8 14,9 23,0 28,0 6 3 14 7 ESE 1018,6 60 0,0
07.08.2020 08:00:00 20,3 15,3 16,9 28,4 9 5 16 8 NNW 1018,5 60 0,0
07.08.2020 07:00:00 17,3 13,2 15,8 28,8 8 4 11 6 NNW 1018,3 0 0,0
07.08.2020 06:00:00 17,3 13,2 16,3 29,2 4 2 10 6 NNW 1017,9 0 0,0
07.08.2020 05:00:00 17,8 14,3 17,1 29,6 7 4 9 5 NNW 1017,9 0 0,0
07.08.2020 04:00:00 18,2 14,9 16,2 30,1 5 3 7 4 NNW 1018,2 0 0,0
07.08.2020 03:00:00 18,1 14,6 16,3 30,6 3 1 5 3 NNE 1018,1 0 0,0
07.08.2020 02:00:00 19,2 14,9 17,4 31,1 3 1 7 4 N 1018,2 0 0,0
07.08.2020 01:00:00 19,5 15,2 17,9 31,6 0 0 5 3 N 1018,1 0 0,0
07.08.2020 00:00:00 20,7 15,3 19,5 32,1 4 2 9 5 SE 1017,8 0 0,0
06.08.2020 23:00:00 22,7 15,8 21,5 32,6 5 3 12 7 S 1017,3 0 0,0
06.08.2020 22:00:00 24,1 14,5 23,1 33,0 6 3 17 9 S 1016,8 0 0,0
06.08.2020 21:00:00 25,9 13,4 25,5 33,2 12 7 21 12 S 1015,9 36 0,0
06.08.2020 20:00:00 30,6 10,0 30,9 33,4 14 7 23 13 SSW 1015,1 60 0,0
06.08.2020 19:00:00 31,9 11,1 35,1 33,4 16 8 29 16 SW 1014,7 60 0,0
06.08.2020 18:00:00 32,5 12,2 37,5 33,0 17 9 33 18 S 1014,6 60 0,0
06.08.2020 17:00:00 34,0 11,8 39,2 32,2 17 9 31 17 SSW 1014,3 60 0,0
06.08.2020 16:00:00 36,5 1,3 41,2 31,2 6 4 21 11 N 1014,3 60 0,0
06.08.2020 15:00:00 35,2 2,6 40,7 30,3 13 7 26 14 NNW 1014,7 60 0,0
06.08.2020 14:00:00 33,8 8,4 39,6 29,3 12 7 29 16 N 1015,1 60 0,0
06.08.2020 13:00:00 32,7 8,9 37,7 28,3 16 8 47 25 NNE 1015,4 60 0,0
06.08.2020 12:00:00 31,4 9,6 35,4 27,6 14 7 33 18 N 1015,7 60 0,0
06.08.2020 11:00:00 29,9 9,4 32,0 27,2 18 10 35 19 NNE 1015,9 60 0,0
06.08.2020 10:00:00 27,1 9,0 29,9 27,1 14 8 25 14 N 1016,1 60 0,0
06.08.2020 09:00:00 26,0 8,0 23,1 27,3 8 4 14 8 NNE 1015,9 60 0,0
06.08.2020 08:00:00 20,3 8,6 15,1 27,6 7 4 12 7 NNW 1015,8 60 0,0
06.08.2020 07:00:00 16,8 8,7 13,9 28,1 4 2 10 5 NNE 1015,8 1 0,0
06.08.2020 06:00:00 17,5 8,9 15,8 28,5 4 2 13 7 NNW 1015,4 0 0,0
06.08.2020 05:00:00 19,8 8,5 16,7 28,9 7 4 11 6 NNW 1014,9 0 0,0
06.08.2020 04:00:00 18,5 8,5 15,7 29,4 3 2 9 5 NNW 1015,1 0 0,0
06.08.2020 03:00:00 20,9 8,5 18,5 29,8 0 0 13 7 N 1015,0 0 0,0
06.08.2020 02:00:00 21,8 8,3 20,2 30,2 9 5 14 8 N 1014,9 0 0,0
06.08.2020 01:00:00 21,4 7,6 18,9 30,7 9 5 18 10 NNW 1014,8 0 0,0
06.08.2020 00:00:00 20,5 8,2 19,0 31,2 6 3 9 5 NNW 1015,0 0 0,0
05.08.2020 23:00:00 22,1 8,6 20,2 31,7 4 2 7 4 NW 1014,7 0 0,0
05.08.2020 22:00:00 23,9 9,1 21,2 32,1 2 1 13 7 NNW 1014,3 0 0,0
05.08.2020 21:00:00 26,4 8,8 25,7 32,4 10 5 22 12 SW 1013,3 37 0,0
05.08.2020 20:00:00 28,6 8,8 28,9 32,5 15 8 26 14 SSW 1012,6 60 0,0
05.08.2020 19:00:00 32,2 4,1 35,7 32,5 13 7 25 14 ENE 1012,0 60 0,0
05.08.2020 18:00:00 33,1 4,8 37,6 32,1 12 6 29 16 NE 1011,7 60 0,0
05.08.2020 17:00:00 32,8 5,4 38,0 31,4 18 10 34 18 ENE 1011,8 60 0,0
05.08.2020 16:00:00 32,2 4,9 36,6 30,5 14 8 36 20 NNE 1012,1 60 0,0
05.08.2020 15:00:00 31,8 2,9 35,7 29,5 21 11 45 24 NE 1012,5 60 0,0
05.08.2020 14:00:00 30,6 5,1 35,3 28,6 26 14 42 23 NE 1012,8 60 0,0
05.08.2020 13:00:00 29,0 5,1 33,6 27,8 21 12 42 23 NNE 1013,0 60 0,0
05.08.2020 12:00:00 27,9 7,2 31,3 27,2 23 13 45 24 NNE 1013,2 60 0,0
05.08.2020 11:00:00 26,4 7,9 29,1 26,8 23 12 43 23 NNE 1013,2 60 0,0
05.08.2020 10:00:00 24,7 7,8 26,1 26,7 18 10 45 24 N 1013,1 60 0,0
05.08.2020 09:00:00 22,7 8,0 22,7 26,8 23 13 49 26 N 1013,2 60 0,0
05.08.2020 08:00:00 20,9 7,8 19,1 27,1 18 10 43 23 N 1012,6 60 0,0
05.08.2020 07:00:00 19,7 8,1 18,3 27,4 18 10 41 22 N 1012,2 2 0,0
05.08.2020 06:00:00 19,2 7,9 18,2 27,8 11 6 27 15 N 1012,2 0 0,0
05.08.2020 05:00:00 19,5 7,9 18,6 28,1 12 7 31 17 NNW 1012,1 0 0,0
05.08.2020 04:00:00 20,8 8,1 20,0 28,4 15 8 34 18 NNW 1012,1 0 0,0
05.08.2020 03:00:00 21,3 7,9 20,0 28,9 16 8 38 20 NNW 1011,9 0 0,0
05.08.2020 02:00:00 21,3 7,9 20,2 29,2 11 6 30 16 NNW 1012,6 0 0,0
05.08.2020 01:00:00 22,0 7,8 21,1 29,6 14 7 34 19 NNW 1012,8 0 0,0
05.08.2020 00:00:00 22,6 7,2 21,8 30,0 17 9 34 19 NNW 1012,7 0 0,0
04.08.2020 23:00:00 23,3 7,0 22,5 30,4 14 7 30 16 NW 1013,0 0 0,0
04.08.2020 22:00:00 23,7 6,9 22,9 30,8 13 7 41 22 N 1012,8 0 0,0
04.08.2020 21:00:00 25,0 6,7 24,6 31,1 21 11 51 28 NNW 1012,2 30 0,0
04.08.2020 20:00:00 26,3 6,3 26,4 31,3 27 15 51 27 NNW 1012,0 57 0,0
04.08.2020 19:00:00 27,4 6,2 30,2 31,4 23 13 61 33 N 1011,5 60 0,0
04.08.2020 18:00:00 27,8 6,5 31,6 31,2 25 13 62 34 N 1011,2 60 0,0
04.08.2020 17:00:00 28,3 5,8 32,2 30,8 26 14 63 34 NNW 1011,3 60 0,0
04.08.2020 16:00:00 27,4 6,2 31,9 30,2 33 18 71 38 N 1011,7 60 0,0
04.08.2020 15:00:00 26,7 6,1 31,3 29,5 31 17 61 33 N 1012,0 60 0,0
04.08.2020 14:00:00 26,1 6,2 31,0 28,7 33 18 58 31 N 1012,5 60 0,0
04.08.2020 13:00:00 25,9 5,5 30,1 28,1 29 16 67 36 N 1012,5 60 0,0
04.08.2020 12:00:00 24,7 6,0 28,8 27,5 31 17 56 30 N 1012,7 60 0,0
04.08.2020 11:00:00 24,2 6,0 27,4 27,3 22 12 47 25 N 1013,1 60 0,0
04.08.2020 10:00:00 22,9 6,6 25,0 27,2 23 12 41 22 NNW 1013,1 60 0,0
04.08.2020 09:00:00 21,6 7,4 22,0 27,4 18 10 41 22 NNW 1013,4 60 0,0
04.08.2020 08:00:00 20,2 7,2 17,9 27,7 16 9 30 16 NW 1013,3 60 0,0
04.08.2020 07:00:00 18,7 7,8 17,9 28,1 10 6 26 14 WNW 1013,2 3 0,0
04.08.2020 06:00:00 18,7 8,4 17,9 28,5 11 6 29 16 WNW 1012,9 0 0,0
04.08.2020 05:00:00 19,1 8,7 18,4 28,9 14 8 35 19 NW 1012,9 0 0,0
04.08.2020 04:00:00 19,4 8,4 17,2 29,3 12 7 26 14 NNW 1013,0 0 0,0
04.08.2020 03:00:00 19,2 8,8 18,2 29,8 8 4 22 12 WNW 1013,4 0 0,0
04.08.2020 02:00:00 19,8 8,5 15,2 30,3 9 5 21 12 NNW 1013,5 0 0,0
04.08.2020 01:00:00 17,1 9,0 15,3 30,8 0 0 8 4 N 1014,0 0 0,0
04.08.2020 00:00:00 19,2 7,6 17,8 31,3 6 3 12 6 ENE 1013,4 0 0,0
03.08.2020 23:00:00 20,9 7,5 19,6 31,7 6 4 26 14 N 1012,7 0 0,0
03.08.2020 22:00:00 22,5 7,5 21,7 32,1 12 6 31 17 NNW 1012,1 0 0,0
03.08.2020 21:00:00 23,8 7,0 23,2 32,5 16 9 42 23 NNW 1011,0 39 0,0
03.08.2020 20:00:00 25,6 6,7 25,8 32,8 17 9 50 27 NNW 1010,8 60 0,0
03.08.2020 19:00:00 26,6 7,1 29,8 33,0 28 15 60 33 NNW 1010,0 56 0,0
03.08.2020 18:00:00 28,8 6,8 32,7 32,9 26 14 62 33 NNW 1009,6 60 0,0
03.08.2020 17:00:00 29,6 5,6 31,1 32,4 27 15 55 30 NNW 1009,3 46 0,0
03.08.2020 16:00:00 30,0 3,9 34,8 31,7 25 14 55 30 N 1009,3 60 0,0
03.08.2020 15:00:00 29,9 4,5 35,3 31,0 23 12 51 27 NNW 1009,6 60 0,0
03.08.2020 14:00:00 28,8 7,4 33,0 30,2 24 13 56 30 NNW 1010,3 58 0,0
03.08.2020 13:00:00 29,0 9,2 33,2 29,6 16 9 41 22 NNW 1010,7 60 0,0
03.08.2020 12:00:00 27,2 10,0 30,7 29,2 22 12 44 24 NNW 1011,1 58 0,0
03.08.2020 11:00:00 26,0 11,4 27,6 29,1 17 9 32 17 NNW 1011,2 27 0,0
03.08.2020 10:00:00 24,9 12,1 24,1 29,2 14 8 32 17 NW 1011,6 10 0,0
03.08.2020 09:00:00 23,1 12,1 23,2 29,4 9 5 19 11 WNW 1011,9 0 0,0
03.08.2020 08:00:00 22,5 12,4 21,8 29,7 11 6 26 14 WNW 1011,7 0 0,0
03.08.2020 07:00:00 22,0 12,8 21,5 30,0 13 7 28 15 NNW 1011,4 0 0,0

tt = Température de l'air
td = dewpoint
tt 5cm = Température de l'air 5cm
tt -20cm = Température de l'air -20cm
ff = Vitesse du vent
fx = gusts
dd = Direction du vent
ppp = reduced air pressure
sd = Ensoleillement
rr = Quantités de précipitations

stations d'obs. à proximité